sensor_id;sensor_type;location;lat;lon;timestamp;P1;durP1;ratioP1;P2;durP2;ratioP2
61785;SDS011;47692;53.714;11.372;2024-02-21T00:00:27;35.38;;;11.70;;
61785;SDS011;47692;53.714;11.372;2024-02-21T00:02:52;30.95;;;12.18;;
61785;SDS011;47692;53.714;11.372;2024-02-21T00:05:18;30.83;;;12.75;;
61785;SDS011;47692;53.714;11.372;2024-02-21T00:07:43;32.40;;;12.20;;
61785;SDS011;47692;53.714;11.372;2024-02-21T00:10:08;27.77;;;12.07;;
61785;SDS011;47692;53.714;11.372;2024-02-21T00:12:34;33.53;;;12.95;;
61785;SDS011;47692;53.714;11.372;2024-02-21T00:14:59;32.83;;;12.40;;
61785;SDS011;47692;53.714;11.372;2024-02-21T00:17:25;30.67;;;12.35;;
61785;SDS011;47692;53.714;11.372;2024-02-21T00:19:52;28.40;;;12.05;;
61785;SDS011;47692;53.714;11.372;2024-02-21T00:22:17;48.47;;;14.30;;
61785;SDS011;47692;53.714;11.372;2024-02-21T00:24:42;29.30;;;12.50;;
61785;SDS011;47692;53.714;11.372;2024-02-21T00:27:08;31.50;;;12.40;;
61785;SDS011;47692;53.714;11.372;2024-02-21T00:29:33;33.13;;;12.80;;
61785;SDS011;47692;53.714;11.372;2024-02-21T00:31:59;38.78;;;13.35;;
61785;SDS011;47692;53.714;11.372;2024-02-21T00:34:24;32.38;;;13.48;;
61785;SDS011;47692;53.714;11.372;2024-02-21T00:36:50;40.97;;;13.02;;
61785;SDS011;47692;53.714;11.372;2024-02-21T00:39:15;34.70;;;13.43;;
61785;SDS011;47692;53.714;11.372;2024-02-21T00:41:40;29.25;;;13.18;;
61785;SDS011;47692;53.714;11.372;2024-02-21T00:44:09;37.92;;;14.43;;
61785;SDS011;47692;53.714;11.372;2024-02-21T00:46:35;35.53;;;12.75;;
61785;SDS011;47692;53.714;11.372;2024-02-21T00:49:00;34.95;;;12.88;;
61785;SDS011;47692;53.714;11.372;2024-02-21T00:51:25;34.90;;;14.90;;
61785;SDS011;47692;53.714;11.372;2024-02-21T00:53:51;37.03;;;14.20;;
61785;SDS011;47692;53.714;11.372;2024-02-21T00:56:16;31.92;;;13.23;;
61785;SDS011;47692;53.714;11.372;2024-02-21T00:58:41;36.67;;;14.05;;
61785;SDS011;47692;53.714;11.372;2024-02-21T01:01:07;29.52;;;13.18;;
61785;SDS011;47692;53.714;11.372;2024-02-21T01:03:32;37.60;;;14.57;;
61785;SDS011;47692;53.714;11.372;2024-02-21T01:05:57;30.13;;;13.48;;
61785;SDS011;47692;53.714;11.372;2024-02-21T01:08:23;38.13;;;14.75;;
61785;SDS011;47692;53.714;11.372;2024-02-21T01:10:48;36.97;;;13.50;;
61785;SDS011;47692;53.714;11.372;2024-02-21T01:13:13;37.85;;;13.18;;
61785;SDS011;47692;53.714;11.372;2024-02-21T01:15:39;32.58;;;12.88;;
61785;SDS011;47692;53.714;11.372;2024-02-21T01:18:04;32.58;;;13.48;;
61785;SDS011;47692;53.714;11.372;2024-02-21T01:20:30;31.40;;;13.55;;
61785;SDS011;47692;53.714;11.372;2024-02-21T01:22:55;32.00;;;12.85;;
61785;SDS011;47692;53.714;11.372;2024-02-21T01:25:20;44.22;;;13.63;;
61785;SDS011;47692;53.714;11.372;2024-02-21T01:27:46;33.17;;;14.02;;
61785;SDS011;47692;53.714;11.372;2024-02-21T01:30:11;36.35;;;13.02;;
61785;SDS011;47692;53.714;11.372;2024-02-21T01:32:36;34.08;;;13.23;;
61785;SDS011;47692;53.714;11.372;2024-02-21T01:35:02;33.30;;;12.15;;
61785;SDS011;47692;53.714;11.372;2024-02-21T01:37:27;32.03;;;13.50;;
61785;SDS011;47692;53.714;11.372;2024-02-21T01:39:53;34.67;;;13.30;;
61785;SDS011;47692;53.714;11.372;2024-02-21T01:42:18;32.28;;;12.77;;
61785;SDS011;47692;53.714;11.372;2024-02-21T01:44:43;34.63;;;13.43;;
61785;SDS011;47692;53.714;11.372;2024-02-21T01:47:09;32.22;;;13.98;;
61785;SDS011;47692;53.714;11.372;2024-02-21T01:49:36;29.48;;;12.55;;
61785;SDS011;47692;53.714;11.372;2024-02-21T01:52:01;29.90;;;12.77;;
61785;SDS011;47692;53.714;11.372;2024-02-21T01:54:28;36.92;;;14.13;;
61785;SDS011;47692;53.714;11.372;2024-02-21T01:56:53;33.30;;;13.57;;
61785;SDS011;47692;53.714;11.372;2024-02-21T01:59:19;29.83;;;11.85;;
61785;SDS011;47692;53.714;11.372;2024-02-21T02:01:46;35.63;;;12.27;;
61785;SDS011;47692;53.714;11.372;2024-02-21T02:04:12;29.85;;;12.55;;
61785;SDS011;47692;53.714;11.372;2024-02-21T02:06:38;33.08;;;13.52;;
61785;SDS011;47692;53.714;11.372;2024-02-21T02:09:04;29.60;;;12.88;;
61785;SDS011;47692;53.714;11.372;2024-02-21T02:11:31;26.63;;;11.65;;
61785;SDS011;47692;53.714;11.372;2024-02-21T02:13:57;32.65;;;12.68;;
61785;SDS011;47692;53.714;11.372;2024-02-21T02:16:22;38.55;;;13.32;;
61785;SDS011;47692;53.714;11.372;2024-02-21T02:18:47;36.10;;;12.80;;
61785;SDS011;47692;53.714;11.372;2024-02-21T02:21:32;32.85;;;13.05;;
61785;SDS011;47692;53.714;11.372;2024-02-21T02:24:02;33.78;;;13.10;;
61785;SDS011;47692;53.714;11.372;2024-02-21T02:26:28;27.20;;;12.35;;
61785;SDS011;47692;53.714;11.372;2024-02-21T02:28:53;31.85;;;12.80;;
61785;SDS011;47692;53.714;11.372;2024-02-21T02:31:18;34.25;;;12.60;;
61785;SDS011;47692;53.714;11.372;2024-02-21T02:33:44;30.13;;;12.40;;
61785;SDS011;47692;53.714;11.372;2024-02-21T02:36:09;32.38;;;13.30;;
61785;SDS011;47692;53.714;11.372;2024-02-21T02:38:35;30.10;;;12.07;;
61785;SDS011;47692;53.714;11.372;2024-02-21T02:41:00;36.28;;;12.93;;
61785;SDS011;47692;53.714;11.372;2024-02-21T02:43:25;27.92;;;12.35;;
61785;SDS011;47692;53.714;11.372;2024-02-21T02:45:50;29.75;;;12.00;;
61785;SDS011;47692;53.714;11.372;2024-02-21T02:48:16;31.05;;;12.27;;
61785;SDS011;47692;53.714;11.372;2024-02-21T02:50:41;33.20;;;12.43;;
61785;SDS011;47692;53.714;11.372;2024-02-21T02:53:06;32.17;;;11.90;;
61785;SDS011;47692;53.714;11.372;2024-02-21T02:55:32;32.30;;;12.48;;
61785;SDS011;47692;53.714;11.372;2024-02-21T02:57:57;30.95;;;13.13;;
61785;SDS011;47692;53.714;11.372;2024-02-21T03:00:22;30.23;;;11.90;;
61785;SDS011;47692;53.714;11.372;2024-02-21T03:02:48;31.55;;;11.95;;
61785;SDS011;47692;53.714;11.372;2024-02-21T03:05:15;30.40;;;11.80;;
61785;SDS011;47692;53.714;11.372;2024-02-21T03:07:41;29.10;;;12.73;;
61785;SDS011;47692;53.714;11.372;2024-02-21T03:10:07;30.10;;;12.35;;
61785;SDS011;47692;53.714;11.372;2024-02-21T03:12:33;29.95;;;11.93;;
61785;SDS011;47692;53.714;11.372;2024-02-21T03:14:58;33.88;;;12.55;;
61785;SDS011;47692;53.714;11.372;2024-02-21T03:17:24;28.33;;;11.90;;
61785;SDS011;47692;53.714;11.372;2024-02-21T03:19:52;28.35;;;11.57;;
61785;SDS011;47692;53.714;11.372;2024-02-21T03:22:17;28.73;;;12.30;;
61785;SDS011;47692;53.714;11.372;2024-02-21T03:24:42;25.95;;;11.02;;
61785;SDS011;47692;53.714;11.372;2024-02-21T03:27:08;28.27;;;11.30;;
61785;SDS011;47692;53.714;11.372;2024-02-21T03:29:33;29.85;;;12.38;;
61785;SDS011;47692;53.714;11.372;2024-02-21T03:31:59;29.70;;;12.27;;
61785;SDS011;47692;53.714;11.372;2024-02-21T03:34:24;31.73;;;11.93;;
61785;SDS011;47692;53.714;11.372;2024-02-21T03:36:49;29.42;;;12.38;;
61785;SDS011;47692;53.714;11.372;2024-02-21T03:39:15;29.52;;;12.25;;
61785;SDS011;47692;53.714;11.372;2024-02-21T03:41:40;31.52;;;12.23;;
61785;SDS011;47692;53.714;11.372;2024-02-21T03:44:05;27.23;;;12.25;;
61785;SDS011;47692;53.714;11.372;2024-02-21T03:46:31;30.70;;;12.18;;
61785;SDS011;47692;53.714;11.372;2024-02-21T03:48:56;38.33;;;13.70;;
61785;SDS011;47692;53.714;11.372;2024-02-21T03:51:22;30.58;;;12.93;;
61785;SDS011;47692;53.714;11.372;2024-02-21T03:53:47;31.42;;;13.27;;
61785;SDS011;47692;53.714;11.372;2024-02-21T03:56:13;37.42;;;12.75;;
61785;SDS011;47692;53.714;11.372;2024-02-21T03:58:38;30.75;;;13.18;;
61785;SDS011;47692;53.714;11.372;2024-02-21T04:01:03;32.65;;;12.63;;
61785;SDS011;47692;53.714;11.372;2024-02-21T04:03:29;34.15;;;13.93;;
61785;SDS011;47692;53.714;11.372;2024-02-21T04:05:55;27.13;;;12.52;;
61785;SDS011;47692;53.714;11.372;2024-02-21T04:08:21;29.73;;;12.73;;
61785;SDS011;47692;53.714;11.372;2024-02-21T04:10:47;36.88;;;13.38;;
61785;SDS011;47692;53.714;11.372;2024-02-21T04:13:12;31.83;;;13.20;;
61785;SDS011;47692;53.714;11.372;2024-02-21T04:15:38;31.83;;;13.55;;
61785;SDS011;47692;53.714;11.372;2024-02-21T04:18:03;40.08;;;14.68;;
61785;SDS011;47692;53.714;11.372;2024-02-21T04:20:28;31.65;;;12.63;;
61785;SDS011;47692;53.714;11.372;2024-02-21T04:22:54;36.25;;;14.18;;
61785;SDS011;47692;53.714;11.372;2024-02-21T04:25:20;30.05;;;14.32;;
61785;SDS011;47692;53.714;11.372;2024-02-21T04:27:45;37.05;;;14.15;;
61785;SDS011;47692;53.714;11.372;2024-02-21T04:30:11;37.53;;;13.93;;
61785;SDS011;47692;53.714;11.372;2024-02-21T04:32:36;32.30;;;14.38;;
61785;SDS011;47692;53.714;11.372;2024-02-21T04:35:02;34.45;;;14.00;;
61785;SDS011;47692;53.714;11.372;2024-02-21T04:37:27;36.85;;;14.60;;
61785;SDS011;47692;53.714;11.372;2024-02-21T04:39:52;35.65;;;14.63;;
61785;SDS011;47692;53.714;11.372;2024-02-21T04:42:18;45.35;;;15.55;;
61785;SDS011;47692;53.714;11.372;2024-02-21T04:44:43;36.10;;;14.77;;
61785;SDS011;47692;53.714;11.372;2024-02-21T04:47:08;37.88;;;14.30;;
61785;SDS011;47692;53.714;11.372;2024-02-21T04:49:34;37.28;;;14.77;;
61785;SDS011;47692;53.714;11.372;2024-02-21T04:51:59;37.92;;;15.30;;
61785;SDS011;47692;53.714;11.372;2024-02-21T04:54:25;37.83;;;15.50;;
61785;SDS011;47692;53.714;11.372;2024-02-21T04:56:50;39.05;;;16.20;;
61785;SDS011;47692;53.714;11.372;2024-02-21T04:59:16;34.60;;;14.52;;
61785;SDS011;47692;53.714;11.372;2024-02-21T05:01:41;36.75;;;14.93;;
61785;SDS011;47692;53.714;11.372;2024-02-21T05:04:07;39.75;;;14.68;;
61785;SDS011;47692;53.714;11.372;2024-02-21T05:06:32;37.60;;;14.10;;
61785;SDS011;47692;53.714;11.372;2024-02-21T05:09:02;40.00;;;16.23;;
61785;SDS011;47692;53.714;11.372;2024-02-21T05:11:28;39.50;;;15.13;;
61785;SDS011;47692;53.714;11.372;2024-02-21T05:13:53;33.72;;;14.48;;
61785;SDS011;47692;53.714;11.372;2024-02-21T05:16:18;38.92;;;15.52;;
61785;SDS011;47692;53.714;11.372;2024-02-21T05:18:44;40.17;;;15.60;;
61785;SDS011;47692;53.714;11.372;2024-02-21T05:21:09;39.42;;;15.32;;
61785;SDS011;47692;53.714;11.372;2024-02-21T05:23:35;37.20;;;14.13;;
61785;SDS011;47692;53.714;11.372;2024-02-21T05:26:00;32.85;;;14.13;;
61785;SDS011;47692;53.714;11.372;2024-02-21T05:28:25;31.27;;;13.77;;
61785;SDS011;47692;53.714;11.372;2024-02-21T05:30:51;35.70;;;14.60;;
61785;SDS011;47692;53.714;11.372;2024-02-21T05:33:16;32.20;;;13.05;;
61785;SDS011;47692;53.714;11.372;2024-02-21T05:35:46;28.90;;;13.38;;
61785;SDS011;47692;53.714;11.372;2024-02-21T05:38:12;42.50;;;14.52;;
61785;SDS011;47692;53.714;11.372;2024-02-21T05:40:38;31.05;;;13.95;;
61785;SDS011;47692;53.714;11.372;2024-02-21T05:43:03;30.77;;;13.07;;
61785;SDS011;47692;53.714;11.372;2024-02-21T05:45:29;31.85;;;13.38;;
61785;SDS011;47692;53.714;11.372;2024-02-21T05:47:54;32.42;;;13.80;;
61785;SDS011;47692;53.714;11.372;2024-02-21T05:50:19;34.17;;;13.38;;
61785;SDS011;47692;53.714;11.372;2024-02-21T05:52:46;33.55;;;13.80;;
61785;SDS011;47692;53.714;11.372;2024-02-21T05:55:11;34.90;;;14.38;;
61785;SDS011;47692;53.714;11.372;2024-02-21T05:57:37;46.38;;;14.35;;
61785;SDS011;47692;53.714;11.372;2024-02-21T06:00:05;28.25;;;12.27;;
61785;SDS011;47692;53.714;11.372;2024-02-21T06:02:31;30.42;;;12.75;;
61785;SDS011;47692;53.714;11.372;2024-02-21T06:04:56;31.92;;;12.50;;
61785;SDS011;47692;53.714;11.372;2024-02-21T06:07:22;25.90;;;12.77;;
61785;SDS011;47692;53.714;11.372;2024-02-21T06:09:47;36.45;;;13.23;;
61785;SDS011;47692;53.714;11.372;2024-02-21T06:12:12;29.05;;;11.43;;
61785;SDS011;47692;53.714;11.372;2024-02-21T06:14:37;27.42;;;12.88;;
61785;SDS011;47692;53.714;11.372;2024-02-21T06:17:03;29.65;;;11.93;;
61785;SDS011;47692;53.714;11.372;2024-02-21T06:19:28;24.75;;;10.75;;
61785;SDS011;47692;53.714;11.372;2024-02-21T06:21:53;26.70;;;12.07;;
61785;SDS011;47692;53.714;11.372;2024-02-21T06:24:19;26.33;;;10.30;;
61785;SDS011;47692;53.714;11.372;2024-02-21T06:26:44;26.23;;;10.95;;
61785;SDS011;47692;53.714;11.372;2024-02-21T06:29:10;24.10;;;9.95;;
61785;SDS011;47692;53.714;11.372;2024-02-21T06:31:36;24.95;;;9.95;;
61785;SDS011;47692;53.714;11.372;2024-02-21T06:34:01;24.67;;;10.65;;
61785;SDS011;47692;53.714;11.372;2024-02-21T06:36:27;23.88;;;9.82;;
61785;SDS011;47692;53.714;11.372;2024-02-21T06:38:52;23.67;;;9.40;;
61785;SDS011;47692;53.714;11.372;2024-02-21T06:41:17;18.75;;;9.40;;
61785;SDS011;47692;53.714;11.372;2024-02-21T06:43:44;21.20;;;9.20;;
61785;SDS011;47692;53.714;11.372;2024-02-21T06:46:22;22.67;;;8.90;;
61785;SDS011;47692;53.714;11.372;2024-02-21T06:48:49;23.33;;;9.10;;
61785;SDS011;47692;53.714;11.372;2024-02-21T06:51:14;22.35;;;9.48;;
61785;SDS011;47692;53.714;11.372;2024-02-21T06:53:39;20.25;;;9.05;;
61785;SDS011;47692;53.714;11.372;2024-02-21T06:56:05;22.15;;;8.63;;
61785;SDS011;47692;53.714;11.372;2024-02-21T06:58:30;19.88;;;8.38;;
61785;SDS011;47692;53.714;11.372;2024-02-21T07:00:56;18.13;;;8.82;;
61785;SDS011;47692;53.714;11.372;2024-02-21T07:03:21;16.98;;;7.90;;
61785;SDS011;47692;53.714;11.372;2024-02-21T07:05:46;21.25;;;8.82;;
61785;SDS011;47692;53.714;11.372;2024-02-21T07:08:11;17.13;;;8.18;;
61785;SDS011;47692;53.714;11.372;2024-02-21T07:10:37;22.13;;;8.50;;
61785;SDS011;47692;53.714;11.372;2024-02-21T07:13:02;17.42;;;8.77;;
61785;SDS011;47692;53.714;11.372;2024-02-21T07:15:27;22.00;;;9.25;;
61785;SDS011;47692;53.714;11.372;2024-02-21T07:17:54;15.32;;;9.95;;
61785;SDS011;47692;53.714;11.372;2024-02-21T07:20:20;12.38;;;5.65;;
61785;SDS011;47692;53.714;11.372;2024-02-21T07:22:45;10.20;;;4.97;;
61785;SDS011;47692;53.714;11.372;2024-02-21T07:25:11;8.10;;;3.70;;
61785;SDS011;47692;53.714;11.372;2024-02-21T07:27:36;7.10;;;3.05;;
61785;SDS011;47692;53.714;11.372;2024-02-21T07:30:02;6.30;;;2.70;;
61785;SDS011;47692;53.714;11.372;2024-02-21T07:32:28;5.20;;;2.42;;
61785;SDS011;47692;53.714;11.372;2024-02-21T07:34:53;4.68;;;2.03;;
61785;SDS011;47692;53.714;11.372;2024-02-21T07:37:18;5.43;;;2.03;;
61785;SDS011;47692;53.714;11.372;2024-02-21T07:39:44;7.57;;;2.28;;
61785;SDS011;47692;53.714;11.372;2024-02-21T07:42:09;3.95;;;2.08;;
61785;SDS011;47692;53.714;11.372;2024-02-21T07:44:34;4.60;;;1.70;;
61785;SDS011;47692;53.714;11.372;2024-02-21T07:47:00;3.78;;;1.80;;
61785;SDS011;47692;53.714;11.372;2024-02-21T07:49:26;4.00;;;1.60;;
61785;SDS011;47692;53.714;11.372;2024-02-21T07:51:51;3.22;;;1.50;;
61785;SDS011;47692;53.714;11.372;2024-02-21T07:54:17;3.03;;;1.60;;
61785;SDS011;47692;53.714;11.372;2024-02-21T07:56:43;4.15;;;1.55;;
61785;SDS011;47692;53.714;11.372;2024-02-21T07:59:08;3.97;;;1.67;;
61785;SDS011;47692;53.714;11.372;2024-02-21T08:01:33;3.80;;;1.83;;
61785;SDS011;47692;53.714;11.372;2024-02-21T08:03:59;4.32;;;2.20;;
61785;SDS011;47692;53.714;11.372;2024-02-21T08:06:24;5.72;;;2.88;;
61785;SDS011;47692;53.714;11.372;2024-02-21T08:08:49;5.75;;;2.67;;
61785;SDS011;47692;53.714;11.372;2024-02-21T08:11:15;7.18;;;3.75;;
61785;SDS011;47692;53.714;11.372;2024-02-21T08:13:40;6.40;;;3.10;;
61785;SDS011;47692;53.714;11.372;2024-02-21T08:16:05;5.50;;;3.17;;
61785;SDS011;47692;53.714;11.372;2024-02-21T08:18:31;6.57;;;3.45;;
61785;SDS011;47692;53.714;11.372;2024-02-21T08:20:56;9.38;;;4.65;;
61785;SDS011;47692;53.714;11.372;2024-02-21T08:23:23;11.85;;;5.05;;
61785;SDS011;47692;53.714;11.372;2024-02-21T08:25:49;13.30;;;5.68;;
61785;SDS011;47692;53.714;11.372;2024-02-21T08:28:14;11.43;;;5.75;;
61785;SDS011;47692;53.714;11.372;2024-02-21T08:30:40;10.88;;;5.75;;
61785;SDS011;47692;53.714;11.372;2024-02-21T08:33:09;9.05;;;5.28;;
61785;SDS011;47692;53.714;11.372;2024-02-21T08:35:34;10.73;;;5.30;;
61785;SDS011;47692;53.714;11.372;2024-02-21T08:38:00;11.45;;;5.20;;
61785;SDS011;47692;53.714;11.372;2024-02-21T08:40:25;9.15;;;4.85;;
61785;SDS011;47692;53.714;11.372;2024-02-21T08:42:50;10.25;;;4.97;;
61785;SDS011;47692;53.714;11.372;2024-02-21T08:45:15;10.02;;;4.90;;
61785;SDS011;47692;53.714;11.372;2024-02-21T08:47:41;7.97;;;4.80;;
61785;SDS011;47692;53.714;11.372;2024-02-21T08:50:07;10.80;;;5.53;;
61785;SDS011;47692;53.714;11.372;2024-02-21T08:52:34;9.38;;;4.70;;
61785;SDS011;47692;53.714;11.372;2024-02-21T08:55:00;8.18;;;4.28;;
61785;SDS011;47692;53.714;11.372;2024-02-21T08:57:25;7.65;;;3.90;;
61785;SDS011;47692;53.714;11.372;2024-02-21T08:59:51;7.72;;;3.55;;
61785;SDS011;47692;53.714;11.372;2024-02-21T09:02:16;6.88;;;3.00;;
61785;SDS011;47692;53.714;11.372;2024-02-21T09:04:41;4.90;;;2.92;;
61785;SDS011;47692;53.714;11.372;2024-02-21T09:07:07;6.70;;;3.05;;
61785;SDS011;47692;53.714;11.372;2024-02-21T09:09:32;5.20;;;2.70;;
61785;SDS011;47692;53.714;11.372;2024-02-21T09:11:58;5.40;;;2.28;;
61785;SDS011;47692;53.714;11.372;2024-02-21T09:14:30;3.90;;;2.58;;
61785;SDS011;47692;53.714;11.372;2024-02-21T09:16:55;5.93;;;2.85;;
61785;SDS011;47692;53.714;11.372;2024-02-21T09:19:21;6.20;;;2.88;;
61785;SDS011;47692;53.714;11.372;2024-02-21T09:21:46;6.13;;;3.40;;
61785;SDS011;47692;53.714;11.372;2024-02-21T09:24:11;4.88;;;3.10;;
61785;SDS011;47692;53.714;11.372;2024-02-21T09:26:37;6.15;;;3.50;;
61785;SDS011;47692;53.714;11.372;2024-02-21T09:29:02;4.93;;;3.00;;
61785;SDS011;47692;53.714;11.372;2024-02-21T09:31:28;5.80;;;3.65;;
61785;SDS011;47692;53.714;11.372;2024-02-21T09:33:54;5.28;;;3.40;;
61785;SDS011;47692;53.714;11.372;2024-02-21T09:36:19;5.50;;;3.17;;
61785;SDS011;47692;53.714;11.372;2024-02-21T09:38:46;6.13;;;3.45;;
61785;SDS011;47692;53.714;11.372;2024-02-21T09:43:42;6.20;;;3.60;;
61785;SDS011;47692;53.714;11.372;2024-02-21T09:46:08;6.47;;;3.15;;
61785;SDS011;47692;53.714;11.372;2024-02-21T09:51:18;6.72;;;3.55;;
61785;SDS011;47692;53.714;11.372;2024-02-21T09:53:44;6.40;;;3.08;;
61785;SDS011;47692;53.714;11.372;2024-02-21T09:56:10;5.15;;;2.97;;
61785;SDS011;47692;53.714;11.372;2024-02-21T09:58:37;4.60;;;3.05;;
61785;SDS011;47692;53.714;11.372;2024-02-21T10:01:03;5.07;;;2.97;;
61785;SDS011;47692;53.714;11.372;2024-02-21T10:03:31;4.18;;;2.47;;
61785;SDS011;47692;53.714;11.372;2024-02-21T10:05:58;4.75;;;2.33;;
61785;SDS011;47692;53.714;11.372;2024-02-21T10:08:25;4.07;;;2.30;;
61785;SDS011;47692;53.714;11.372;2024-02-21T10:10:51;5.10;;;1.92;;
61785;SDS011;47692;53.714;11.372;2024-02-21T10:13:24;7.20;;;1.50;;
61785;SDS011;47692;53.714;11.372;2024-02-21T10:16:03;4.80;;;1.80;;
61785;SDS011;47692;53.714;11.372;2024-02-21T10:18:29;5.55;;;1.60;;
61785;SDS011;47692;53.714;11.372;2024-02-21T10:23:27;4.32;;;1.63;;
61785;SDS011;47692;53.714;11.372;2024-02-21T10:25:52;4.32;;;1.77;;
61785;SDS011;47692;53.714;11.372;2024-02-21T10:28:17;5.30;;;2.28;;
61785;SDS011;47692;53.714;11.372;2024-02-21T10:30:51;3.95;;;1.80;;
61785;SDS011;47692;53.714;11.372;2024-02-21T10:33:17;3.95;;;1.95;;
61785;SDS011;47692;53.714;11.372;2024-02-21T10:35:46;8.15;;;2.38;;
61785;SDS011;47692;53.714;11.372;2024-02-21T10:38:11;4.82;;;2.05;;
61785;SDS011;47692;53.714;11.372;2024-02-21T10:40:37;7.85;;;3.08;;
61785;SDS011;47692;53.714;11.372;2024-02-21T10:43:02;6.55;;;2.30;;
61785;SDS011;47692;53.714;11.372;2024-02-21T10:45:29;3.45;;;2.00;;
61785;SDS011;47692;53.714;11.372;2024-02-21T10:47:58;5.75;;;2.78;;
61785;SDS011;47692;53.714;11.372;2024-02-21T10:50:33;6.82;;;2.08;;
61785;SDS011;47692;53.714;11.372;2024-02-21T10:53:20;4.97;;;1.90;;
61785;SDS011;47692;53.714;11.372;2024-02-21T10:56:06;6.68;;;1.60;;
61785;SDS011;47692;53.714;11.372;2024-02-21T10:58:41;3.10;;;1.60;;
61785;SDS011;47692;53.714;11.372;2024-02-21T11:01:09;7.63;;;1.67;;
61785;SDS011;47692;53.714;11.372;2024-02-21T11:03:34;5.78;;;1.58;;
61785;SDS011;47692;53.714;11.372;2024-02-21T11:06:01;3.72;;;1.30;;
61785;SDS011;47692;53.714;11.372;2024-02-21T11:08:27;3.15;;;1.30;;
61785;SDS011;47692;53.714;11.372;2024-02-21T11:10:56;6.13;;;1.80;;
61785;SDS011;47692;53.714;11.372;2024-02-21T11:13:29;7.60;;;1.77;;
61785;SDS011;47692;53.714;11.372;2024-02-21T11:16:05;5.10;;;1.58;;
61785;SDS011;47692;53.714;11.372;2024-02-21T11:18:34;5.40;;;1.77;;
61785;SDS011;47692;53.714;11.372;2024-02-21T11:20:59;2.95;;;1.80;;
61785;SDS011;47692;53.714;11.372;2024-02-21T11:23:25;5.20;;;2.15;;
61785;SDS011;47692;53.714;11.372;2024-02-21T11:25:51;4.72;;;1.75;;
61785;SDS011;47692;53.714;11.372;2024-02-21T11:28:17;2.70;;;1.27;;
61785;SDS011;47692;53.714;11.372;2024-02-21T11:30:50;3.20;;;1.58;;
61785;SDS011;47692;53.714;11.372;2024-02-21T11:33:16;4.07;;;1.77;;
61785;SDS011;47692;53.714;11.372;2024-02-21T11:35:41;5.20;;;1.83;;
61785;SDS011;47692;53.714;11.372;2024-02-21T11:38:07;5.93;;;1.83;;
61785;SDS011;47692;53.714;11.372;2024-02-21T11:40:34;3.03;;;1.50;;
61785;SDS011;47692;53.714;11.372;2024-02-21T11:43:00;2.92;;;1.52;;
61785;SDS011;47692;53.714;11.372;2024-02-21T11:45:25;2.65;;;1.70;;
61785;SDS011;47692;53.714;11.372;2024-02-21T11:47:51;2.33;;;1.35;;
61785;SDS011;47692;53.714;11.372;2024-02-21T11:50:16;1.88;;;1.30;;
61785;SDS011;47692;53.714;11.372;2024-02-21T11:52:42;5.07;;;1.70;;
61785;SDS011;47692;53.714;11.372;2024-02-21T11:55:07;2.30;;;1.40;;
61785;SDS011;47692;53.714;11.372;2024-02-21T11:57:33;2.28;;;1.58;;
61785;SDS011;47692;53.714;11.372;2024-02-21T12:00:10;2.72;;;1.80;;
61785;SDS011;47692;53.714;11.372;2024-02-21T12:02:40;3.97;;;2.08;;
61785;SDS011;47692;53.714;11.372;2024-02-21T12:05:05;3.85;;;2.13;;
61785;SDS011;47692;53.714;11.372;2024-02-21T12:07:31;3.72;;;2.65;;
61785;SDS011;47692;53.714;11.372;2024-02-21T12:09:58;5.63;;;2.38;;
61785;SDS011;47692;53.714;11.372;2024-02-21T12:12:25;9.38;;;3.03;;
61785;SDS011;47692;53.714;11.372;2024-02-21T12:14:56;5.75;;;2.58;;
61785;SDS011;47692;53.714;11.372;2024-02-21T12:17:24;4.95;;;2.97;;
61785;SDS011;47692;53.714;11.372;2024-02-21T12:19:50;5.22;;;2.70;;
61785;SDS011;47692;53.714;11.372;2024-02-21T12:22:16;8.13;;;3.42;;
61785;SDS011;47692;53.714;11.372;2024-02-21T12:24:43;8.80;;;4.70;;
61785;SDS011;47692;53.714;11.372;2024-02-21T12:27:12;11.15;;;5.45;;
61785;SDS011;47692;53.714;11.372;2024-02-21T12:29:37;13.25;;;7.40;;
61785;SDS011;47692;53.714;11.372;2024-02-21T12:32:03;13.13;;;6.45;;
61785;SDS011;47692;53.714;11.372;2024-02-21T12:34:29;17.25;;;7.07;;
61785;SDS011;47692;53.714;11.372;2024-02-21T12:36:57;19.33;;;7.47;;
61785;SDS011;47692;53.714;11.372;2024-02-21T12:39:23;18.17;;;8.02;;
61785;SDS011;47692;53.714;11.372;2024-02-21T12:41:48;15.02;;;7.05;;
61785;SDS011;47692;53.714;11.372;2024-02-21T12:44:13;21.77;;;7.88;;
61785;SDS011;47692;53.714;11.372;2024-02-21T12:46:39;18.25;;;7.65;;
61785;SDS011;47692;53.714;11.372;2024-02-21T12:49:05;14.77;;;7.53;;
61785;SDS011;47692;53.714;11.372;2024-02-21T12:51:32;19.73;;;7.72;;
61785;SDS011;47692;53.714;11.372;2024-02-21T12:53:58;20.15;;;8.25;;
61785;SDS011;47692;53.714;11.372;2024-02-21T12:56:24;16.52;;;8.10;;
61785;SDS011;47692;53.714;11.372;2024-02-21T12:58:51;21.35;;;8.88;;
61785;SDS011;47692;53.714;11.372;2024-02-21T13:01:16;21.67;;;8.13;;
61785;SDS011;47692;53.714;11.372;2024-02-21T13:03:42;19.33;;;7.82;;
61785;SDS011;47692;53.714;11.372;2024-02-21T13:06:07;19.60;;;8.00;;
61785;SDS011;47692;53.714;11.372;2024-02-21T13:08:38;17.90;;;8.02;;
61785;SDS011;47692;53.714;11.372;2024-02-21T13:11:04;12.90;;;6.68;;
61785;SDS011;47692;53.714;11.372;2024-02-21T13:13:30;17.52;;;7.40;;
61785;SDS011;47692;53.714;11.372;2024-02-21T13:15:57;17.52;;;8.30;;
61785;SDS011;47692;53.714;11.372;2024-02-21T13:18:22;15.43;;;7.65;;
61785;SDS011;47692;53.714;11.372;2024-02-21T13:20:48;17.70;;;7.65;;
61785;SDS011;47692;53.714;11.372;2024-02-21T13:23:13;14.98;;;7.20;;
61785;SDS011;47692;53.714;11.372;2024-02-21T13:25:38;15.38;;;6.03;;
61785;SDS011;47692;53.714;11.372;2024-02-21T13:28:04;13.75;;;6.25;;
61785;SDS011;47692;53.714;11.372;2024-02-21T13:30:29;13.77;;;6.47;;
61785;SDS011;47692;53.714;11.372;2024-02-21T13:32:54;14.05;;;6.90;;
61785;SDS011;47692;53.714;11.372;2024-02-21T13:35:20;15.07;;;6.53;;
61785;SDS011;47692;53.714;11.372;2024-02-21T13:37:45;14.90;;;7.20;;
61785;SDS011;47692;53.714;11.372;2024-02-21T13:40:11;11.50;;;5.95;;
61785;SDS011;47692;53.714;11.372;2024-02-21T13:42:38;15.65;;;6.28;;
61785;SDS011;47692;53.714;11.372;2024-02-21T13:45:05;15.20;;;7.30;;
61785;SDS011;47692;53.714;11.372;2024-02-21T13:47:32;16.33;;;6.43;;
61785;SDS011;47692;53.714;11.372;2024-02-21T13:49:58;15.02;;;5.97;;
61785;SDS011;47692;53.714;11.372;2024-02-21T13:52:23;11.05;;;6.00;;
61785;SDS011;47692;53.714;11.372;2024-02-21T13:54:51;13.70;;;6.45;;
61785;SDS011;47692;53.714;11.372;2024-02-21T13:57:17;17.13;;;6.60;;
61785;SDS011;47692;53.714;11.372;2024-02-21T13:59:42;14.82;;;6.13;;
61785;SDS011;47692;53.714;11.372;2024-02-21T14:02:07;13.18;;;5.90;;
61785;SDS011;47692;53.714;11.372;2024-02-21T14:04:33;13.77;;;6.25;;
61785;SDS011;47692;53.714;11.372;2024-02-21T14:06:59;11.32;;;6.03;;
61785;SDS011;47692;53.714;11.372;2024-02-21T14:09:25;14.15;;;6.50;;
61785;SDS011;47692;53.714;11.372;2024-02-21T14:11:50;12.23;;;6.05;;
61785;SDS011;47692;53.714;11.372;2024-02-21T14:14:16;17.45;;;6.85;;
61785;SDS011;47692;53.714;11.372;2024-02-21T14:16:41;16.98;;;6.90;;
61785;SDS011;47692;53.714;11.372;2024-02-21T14:19:06;16.17;;;6.57;;